sensor_id;sensor_type;location;lat;lon;timestamp;pressure;altitude;pressure_sealevel;temperature;humidity
71059;BME280;70265;47.576;19.270;2023-11-21T00:00:20;98327.38;;;2.73;100.00
71059;BME280;70265;47.576;19.270;2023-11-21T00:01:24;98330.78;;;2.74;100.00
71059;BME280;70265;47.576;19.270;2023-11-21T00:02:26;98334.81;;;2.78;100.00
71059;BME280;70265;47.576;19.270;2023-11-21T00:03:27;98337.25;;;2.79;100.00
71059;BME280;70265;47.576;19.270;2023-11-21T00:04:31;98331.16;;;2.80;100.00
71059;BME280;70265;47.576;19.270;2023-11-21T00:05:32;98332.56;;;2.84;100.00
71059;BME280;70265;47.576;19.270;2023-11-21T00:06:36;98335.03;;;2.86;100.00
71059;BME280;70265;47.576;19.270;2023-11-21T00:07:37;98334.09;;;2.87;100.00
71059;BME280;70265;47.576;19.270;2023-11-21T00:08:38;98335.16;;;2.84;100.00
71059;BME280;70265;47.576;19.270;2023-11-21T00:09:42;98337.97;;;2.70;100.00
71059;BME280;70265;47.576;19.270;2023-11-21T00:10:43;98338.09;;;2.69;100.00
71059;BME280;70265;47.576;19.270;2023-11-21T00:11:44;98329.00;;;2.63;100.00
71059;BME280;70265;47.576;19.270;2023-11-21T00:12:48;98327.59;;;2.59;100.00
71059;BME280;70265;47.576;19.270;2023-11-21T00:13:50;98325.97;;;2.58;100.00
71059;BME280;70265;47.576;19.270;2023-11-21T00:14:54;98327.59;;;2.59;100.00
71059;BME280;70265;47.576;19.270;2023-11-21T00:15:57;98332.66;;;2.61;100.00
71059;BME280;70265;47.576;19.270;2023-11-21T00:17:01;98323.97;;;2.62;100.00
71059;BME280;70265;47.576;19.270;2023-11-21T00:18:02;98326.31;;;2.65;100.00
71059;BME280;70265;47.576;19.270;2023-11-21T00:19:04;98322.75;;;2.66;100.00
71059;BME280;70265;47.576;19.270;2023-11-21T00:20:08;98324.31;;;2.68;100.00
71059;BME280;70265;47.576;19.270;2023-11-21T00:21:13;98324.19;;;2.70;100.00
71059;BME280;70265;47.576;19.270;2023-11-21T00:22:16;98320.53;;;2.72;100.00
71059;BME280;70265;47.576;19.270;2023-11-21T00:23:17;98322.91;;;2.75;100.00
71059;BME280;70265;47.576;19.270;2023-11-21T00:24:21;98319.25;;;2.78;100.00
71059;BME280;70265;47.576;19.270;2023-11-21T00:25:23;98314.78;;;2.80;100.00
71059;BME280;70265;47.576;19.270;2023-11-21T00:26:26;98318.91;;;2.82;100.00
71059;BME280;70265;47.576;19.270;2023-11-21T00:27:28;98315.38;;;2.83;100.00
71059;BME280;70265;47.576;19.270;2023-11-21T00:28:29;98306.44;;;2.87;100.00
71059;BME280;70265;47.576;19.270;2023-11-21T00:29:33;98316.44;;;2.92;100.00
71059;BME280;70265;47.576;19.270;2023-11-21T00:30:34;98318.56;;;2.98;100.00
71059;BME280;70265;47.576;19.270;2023-11-21T00:31:38;98315.38;;;3.05;100.00
71059;BME280;70265;47.576;19.270;2023-11-21T00:32:42;98318.91;;;3.04;100.00
71059;BME280;70265;47.576;19.270;2023-11-21T00:33:43;98320.31;;;3.08;100.00
71059;BME280;70265;47.576;19.270;2023-11-21T00:34:44;98322.53;;;3.13;100.00
71059;BME280;70265;47.576;19.270;2023-11-21T00:35:48;98318.19;;;3.14;100.00
71059;BME280;70265;47.576;19.270;2023-11-21T00:36:49;98317.94;;;3.17;100.00
71059;BME280;70265;47.576;19.270;2023-11-21T00:37:53;98330.19;;;3.15;100.00
71059;BME280;70265;47.576;19.270;2023-11-21T00:38:54;98325.00;;;3.15;100.00
71059;BME280;70265;47.576;19.270;2023-11-21T00:39:56;98326.78;;;3.14;100.00
71059;BME280;70265;47.576;19.270;2023-11-21T00:41:00;98319.13;;;3.13;100.00
71059;BME280;70265;47.576;19.270;2023-11-21T00:42:01;98326.91;;;3.13;100.00
71059;BME280;70265;47.576;19.270;2023-11-21T00:43:05;98325.97;;;3.02;100.00
71059;BME280;70265;47.576;19.270;2023-11-21T00:44:06;98326.19;;;2.99;100.00
71059;BME280;70265;47.576;19.270;2023-11-21T00:45:11;98322.06;;;2.97;100.00
71059;BME280;70265;47.576;19.270;2023-11-21T00:46:12;98327.50;;;2.94;100.00
71059;BME280;70265;47.576;19.270;2023-11-21T00:47:18;98322.78;;;2.88;100.00
71059;BME280;70265;47.576;19.270;2023-11-21T00:48:19;98327.13;;;2.76;100.00
71059;BME280;70265;47.576;19.270;2023-11-21T00:49:23;98328.91;;;2.76;100.00
71059;BME280;70265;47.576;19.270;2023-11-21T00:50:24;98328.78;;;2.77;100.00
71059;BME280;70265;47.576;19.270;2023-11-21T00:51:27;98324.69;;;2.75;100.00
71059;BME280;70265;47.576;19.270;2023-11-21T00:52:29;98327.13;;;2.76;100.00
71059;BME280;70265;47.576;19.270;2023-11-21T00:53:32;98320.44;;;2.74;100.00
71059;BME280;70265;47.576;19.270;2023-11-21T00:54:33;98324.53;;;2.76;100.00
71059;BME280;70265;47.576;19.270;2023-11-21T00:55:37;98323.63;;;2.77;100.00
71059;BME280;70265;47.576;19.270;2023-11-21T00:56:40;98323.63;;;2.77;100.00
71059;BME280;70265;47.576;19.270;2023-11-21T00:57:44;98322.91;;;2.75;100.00
71059;BME280;70265;47.576;19.270;2023-11-21T00:58:45;98324.53;;;2.76;100.00
71059;BME280;70265;47.576;19.270;2023-11-21T00:59:50;98318.44;;;2.77;100.00
71059;BME280;70265;47.576;19.270;2023-11-21T01:00:54;98319.97;;;2.80;100.00
71059;BME280;70265;47.576;19.270;2023-11-21T01:01:55;98320.53;;;2.83;100.00
71059;BME280;70265;47.576;19.270;2023-11-21T01:03:03;98312.78;;;2.83;100.00
71059;BME280;70265;47.576;19.270;2023-11-21T01:04:05;98311.59;;;2.87;100.00
71059;BME280;70265;47.576;19.270;2023-11-21T01:05:11;98310.78;;;2.87;100.00
71059;BME280;70265;47.576;19.270;2023-11-21T01:06:12;98312.91;;;2.82;100.00
71059;BME280;70265;47.576;19.270;2023-11-21T01:07:16;98320.91;;;2.79;100.00
71059;BME280;70265;47.576;19.270;2023-11-21T01:08:18;98313.16;;;2.79;100.00
71059;BME280;70265;47.576;19.270;2023-11-21T01:09:22;98321.84;;;2.78;100.00
71059;BME280;70265;47.576;19.270;2023-11-21T01:10:23;98321.13;;;2.76;100.00
71059;BME280;70265;47.576;19.270;2023-11-21T01:11:26;98326.09;;;2.79;100.00
71059;BME280;70265;47.576;19.270;2023-11-21T01:12:27;98325.38;;;2.77;100.00
71059;BME280;70265;47.576;19.270;2023-11-21T01:13:32;98321.97;;;2.76;100.00
71059;BME280;70265;47.576;19.270;2023-11-21T01:14:33;98321.25;;;2.74;100.00
71059;BME280;70265;47.576;19.270;2023-11-21T01:15:37;98320.53;;;2.72;100.00
71059;BME280;70265;47.576;19.270;2023-11-21T01:16:38;98322.31;;;2.72;100.00
71059;BME280;70265;47.576;19.270;2023-11-21T01:17:41;98323.25;;;2.71;100.00
71059;BME280;70265;47.576;19.270;2023-11-21T01:18:46;98324.09;;;2.71;100.00
71059;BME280;70265;47.576;19.270;2023-11-21T01:19:49;98319.00;;;2.70;100.00
71059;BME280;70265;47.576;19.270;2023-11-21T01:20:50;98321.72;;;2.68;100.00
71059;BME280;70265;47.576;19.270;2023-11-21T01:21:54;98318.78;;;2.62;100.00
71059;BME280;70265;47.576;19.270;2023-11-21T01:22:55;98319.97;;;2.58;100.00
71059;BME280;70265;47.576;19.270;2023-11-21T01:23:58;98318.53;;;2.53;100.00
71059;BME280;70265;47.576;19.270;2023-11-21T01:24:59;98316.28;;;2.49;100.00
71059;BME280;70265;47.576;19.270;2023-11-21T01:26:05;98320.53;;;2.50;100.00
71059;BME280;70265;47.576;19.270;2023-11-21T01:27:06;98317.00;;;2.51;100.00
71059;BME280;70265;47.576;19.270;2023-11-21T01:28:10;98321.03;;;2.55;100.00
71059;BME280;70265;47.576;19.270;2023-11-21T01:29:11;98322.78;;;2.54;100.00
71059;BME280;70265;47.576;19.270;2023-11-21T01:30:15;98327.81;;;2.56;100.00
71059;BME280;70265;47.576;19.270;2023-11-21T01:31:17;98321.03;;;2.55;100.00
71059;BME280;70265;47.576;19.270;2023-11-21T01:32:18;98322.78;;;2.54;100.00
71059;BME280;70265;47.576;19.270;2023-11-21T01:33:21;98328.88;;;2.53;100.00
71059;BME280;70265;47.576;19.270;2023-11-21T01:34:25;98324.53;;;2.54;100.00
71059;BME280;70265;47.576;19.270;2023-11-21T01:35:29;98326.19;;;2.55;100.00
71059;BME280;70265;47.576;19.270;2023-11-21T01:36:31;98321.03;;;2.55;100.00
71059;BME280;70265;47.576;19.270;2023-11-21T01:37:36;98323.69;;;2.31;100.00
71059;BME280;70265;47.576;19.270;2023-11-21T01:38:37;98317.09;;;2.27;100.00
71059;BME280;70265;47.576;19.270;2023-11-21T01:39:42;98316.25;;;2.27;100.00
71059;BME280;70265;47.576;19.270;2023-11-21T01:40:45;98323.75;;;2.19;100.00
71059;BME280;70265;47.576;19.270;2023-11-21T01:41:48;98314.47;;;2.16;100.00
71059;BME280;70265;47.576;19.270;2023-11-21T01:42:49;98321.72;;;2.11;100.00
71059;BME280;70265;47.576;19.270;2023-11-21T01:43:53;98313.97;;;2.11;100.00
71059;BME280;70265;47.576;19.270;2023-11-21T01:44:54;98310.44;;;2.12;100.00
71059;BME280;70265;47.576;19.270;2023-11-21T01:45:58;98315.50;;;2.14;100.00
71059;BME280;70265;47.576;19.270;2023-11-21T01:47:00;98307.75;;;2.14;100.00
71059;BME280;70265;47.576;19.270;2023-11-21T01:48:06;98315.28;;;2.17;100.00
71059;BME280;70265;47.576;19.270;2023-11-21T01:49:07;98308.13;;;2.20;100.00
71059;BME280;70265;47.576;19.270;2023-11-21T01:50:17;98312.13;;;2.24;100.00
71059;BME280;70265;47.576;19.270;2023-11-21T01:51:19;98303.41;;;2.25;100.00
71059;BME280;70265;47.576;19.270;2023-11-21T01:52:23;98302.03;;;2.32;100.00
71059;BME280;70265;47.576;19.270;2023-11-21T01:53:25;98304.59;;;2.32;100.00
71059;BME280;70265;47.576;19.270;2023-11-21T01:54:30;98305.34;;;2.34;100.00
71059;BME280;70265;47.576;19.270;2023-11-21T01:55:31;98307.69;;;2.37;100.00
71059;BME280;70265;47.576;19.270;2023-11-21T01:56:36;98309.31;;;2.38;100.00
71059;BME280;70265;47.576;19.270;2023-11-21T01:57:38;98308.28;;;2.41;100.00
71059;BME280;70265;47.576;19.270;2023-11-21T01:58:42;98308.53;;;2.38;100.00
71059;BME280;70265;47.576;19.270;2023-11-21T01:59:44;98312.72;;;2.39;100.00
71059;BME280;70265;47.576;19.270;2023-11-21T02:00:49;98309.91;;;2.42;100.00
71059;BME280;70265;47.576;19.270;2023-11-21T02:01:51;98307.69;;;2.37;100.00
71059;BME280;70265;47.576;19.270;2023-11-21T02:02:52;98306.88;;;2.37;100.00
71059;BME280;70265;47.576;19.270;2023-11-21T02:03:57;98298.50;;;2.33;100.00
71059;BME280;70265;47.576;19.270;2023-11-21T02:04:58;98294.38;;;2.31;100.00
71059;BME280;70265;47.576;19.270;2023-11-21T02:06:05;98295.66;;;2.25;100.00
71059;BME280;70265;47.576;19.270;2023-11-21T02:07:07;98293.06;;;2.25;100.00
71059;BME280;70265;47.576;19.270;2023-11-21T02:08:10;98289.56;;;2.26;100.00
71059;BME280;70265;47.576;19.270;2023-11-21T02:09:12;98277.44;;;2.27;100.00
71059;BME280;70265;47.576;19.270;2023-11-21T02:10:16;98281.44;;;2.31;100.00
71059;BME280;70265;47.576;19.270;2023-11-21T02:11:17;98271.22;;;2.29;100.00
71059;BME280;70265;47.576;19.270;2023-11-21T02:12:19;98277.09;;;2.31;100.00
71059;BME280;70265;47.576;19.270;2023-11-21T02:13:27;98271.19;;;2.18;100.00
71059;BME280;70265;47.576;19.270;2023-11-21T02:14:29;98278.09;;;2.07;100.00
71059;BME280;70265;47.576;19.270;2023-11-21T02:15:33;98284.53;;;2.01;100.00
71059;BME280;70265;47.576;19.270;2023-11-21T02:16:34;98276.34;;;2.07;100.00
71059;BME280;70265;47.576;19.270;2023-11-21T02:17:35;98286.34;;;2.12;100.00
71059;BME280;70265;47.576;19.270;2023-11-21T02:18:39;98278.34;;;2.15;100.00
71059;BME280;70265;47.576;19.270;2023-11-21T02:19:40;98281.53;;;2.18;100.00
71059;BME280;70265;47.576;19.270;2023-11-21T02:20:45;98281.28;;;2.21;100.00
71059;BME280;70265;47.576;19.270;2023-11-21T02:21:50;98280.13;;;2.25;100.00
71059;BME280;70265;47.576;19.270;2023-11-21T02:22:58;98282.72;;;2.25;100.00
71059;BME280;70265;47.576;19.270;2023-11-21T02:23:59;98278.13;;;2.29;100.00
71059;BME280;70265;47.576;19.270;2023-11-21T02:25:04;98278.63;;;2.34;100.00
71059;BME280;70265;47.576;19.270;2023-11-21T02:26:06;98273.09;;;2.38;100.00
71059;BME280;70265;47.576;19.270;2023-11-21T02:27:11;98270.50;;;2.38;100.00
71059;BME280;70265;47.576;19.270;2023-11-21T02:28:12;98272.88;;;2.30;100.00
71059;BME280;70265;47.576;19.270;2023-11-21T02:29:19;98261.44;;;2.22;100.00
71059;BME280;70265;47.576;19.270;2023-11-21T02:30:22;98269.53;;;2.28;100.00
71059;BME280;70265;47.576;19.270;2023-11-21T02:31:25;98266.03;;;2.29;100.00
71059;BME280;70265;47.576;19.270;2023-11-21T02:32:30;98270.16;;;2.32;100.00
71059;BME280;70265;47.576;19.270;2023-11-21T02:33:32;98269.22;;;2.33;100.00
71059;BME280;70265;47.576;19.270;2023-11-21T02:34:36;98267.31;;;2.35;100.00
71059;BME280;70265;47.576;19.270;2023-11-21T02:35:38;98261.94;;;2.38;100.00
71059;BME280;70265;47.576;19.270;2023-11-21T02:36:44;98259.22;;;2.39;100.00
71059;BME280;70265;47.576;19.270;2023-11-21T02:37:45;98258.16;;;2.42;100.00
71059;BME280;70265;47.576;19.270;2023-11-21T02:38:52;98260.53;;;2.45;100.00
71059;BME280;70265;47.576;19.270;2023-11-21T02:39:53;98258.75;;;2.45;100.00
71059;BME280;70265;47.576;19.270;2023-11-21T02:40:57;98263.69;;;2.48;100.00
71059;BME280;70265;47.576;19.270;2023-11-21T02:41:59;98257.34;;;2.52;100.00
71059;BME280;70265;47.576;19.270;2023-11-21T02:43:02;98254.75;;;2.52;100.00
71059;BME280;70265;47.576;19.270;2023-11-21T02:44:06;98259.59;;;2.57;100.00
71059;BME280;70265;47.576;19.270;2023-11-21T02:45:08;98258.41;;;2.61;100.00
71059;BME280;70265;47.576;19.270;2023-11-21T02:46:13;98258.19;;;2.64;100.00
71059;BME280;70265;47.576;19.270;2023-11-21T02:47:14;98258.78;;;2.68;100.00
71059;BME280;70265;47.576;19.270;2023-11-21T02:48:18;98260.53;;;2.67;100.00
71059;BME280;70265;47.576;19.270;2023-11-21T02:49:19;98258.88;;;2.66;100.00
71059;BME280;70265;47.576;19.270;2023-11-21T02:50:23;98258.78;;;2.68;100.00
71059;BME280;70265;47.576;19.270;2023-11-21T02:51:24;98258.53;;;2.71;100.00
71059;BME280;70265;47.576;19.270;2023-11-21T02:52:27;98258.53;;;2.71;100.00
71059;BME280;70265;47.576;19.270;2023-11-21T02:53:29;98264.53;;;2.71;100.00
71059;BME280;70265;47.576;19.270;2023-11-21T02:54:35;98255.81;;;2.72;100.00
71059;BME280;70265;47.576;19.270;2023-11-21T02:55:37;98258.41;;;2.72;100.00
71059;BME280;70265;47.576;19.270;2023-11-21T02:56:40;98259.94;;;2.75;100.00
71059;BME280;70265;47.576;19.270;2023-11-21T02:57:41;98250.28;;;2.77;100.00
71059;BME280;70265;47.576;19.270;2023-11-21T02:58:45;98260.41;;;2.80;100.00
71059;BME280;70265;47.576;19.270;2023-11-21T02:59:46;98263.56;;;2.72;100.00
71059;BME280;70265;47.576;19.270;2023-11-21T03:00:50;98257.81;;;2.58;100.00
71059;BME280;70265;47.576;19.270;2023-11-21T03:01:52;98260.88;;;2.63;100.00
71059;BME280;70265;47.576;19.270;2023-11-21T03:02:58;98263.69;;;2.60;100.00
71059;BME280;70265;47.576;19.270;2023-11-21T03:03:59;98261.94;;;2.60;100.00
71059;BME280;70265;47.576;19.270;2023-11-21T03:05:00;98263.34;;;2.53;100.00
71059;BME280;70265;47.576;19.270;2023-11-21T03:06:06;98266.75;;;2.53;100.00
71059;BME280;70265;47.576;19.270;2023-11-21T03:07:07;98260.66;;;2.54;100.00
71059;BME280;70265;47.576;19.270;2023-11-21T03:08:10;98254.50;;;2.55;100.00
71059;BME280;70265;47.576;19.270;2023-11-21T03:09:12;98265.09;;;2.52;100.00
71059;BME280;70265;47.576;19.270;2023-11-21T03:10:19;98259.22;;;2.39;100.00
71059;BME280;70265;47.576;19.270;2023-11-21T03:11:20;98258.41;;;2.39;100.00
71059;BME280;70265;47.576;19.270;2023-11-21T03:12:21;98257.94;;;2.34;100.00
71059;BME280;70265;47.576;19.270;2023-11-21T03:13:26;98255.44;;;2.32;100.00
71059;BME280;70265;47.576;19.270;2023-11-21T03:14:27;98254.16;;;2.27;100.00
71059;BME280;70265;47.576;19.270;2023-11-21T03:15:31;98253.31;;;2.26;100.00
71059;BME280;70265;47.576;19.270;2023-11-21T03:16:33;98258.84;;;2.22;100.00
71059;BME280;70265;47.576;19.270;2023-11-21T03:17:39;98258.00;;;2.21;100.00
71059;BME280;70265;47.576;19.270;2023-11-21T03:18:41;98259.44;;;2.25;100.00
71059;BME280;70265;47.576;19.270;2023-11-21T03:19:45;98247.91;;;2.29;100.00
71059;BME280;70265;47.576;19.270;2023-11-21T03:20:46;98244.75;;;2.37;100.00
71059;BME280;70265;47.576;19.270;2023-11-21T03:21:47;98243.69;;;2.39;100.00
71059;BME280;70265;47.576;19.270;2023-11-21T03:22:53;98242.75;;;2.40;100.00
71059;BME280;70265;47.576;19.270;2023-11-21T03:23:54;98232.66;;;2.37;100.00
71059;BME280;70265;47.576;19.270;2023-11-21T03:25:00;98226.50;;;2.38;100.00
71059;BME280;70265;47.576;19.270;2023-11-21T03:26:04;98230.88;;;2.38;100.00
71059;BME280;70265;47.576;19.270;2023-11-21T03:27:09;98227.56;;;2.36;100.00
71059;BME280;70265;47.576;19.270;2023-11-21T03:28:10;98223.22;;;2.36;100.00
71059;BME280;70265;47.576;19.270;2023-11-21T03:29:13;98214.78;;;2.34;100.00
71059;BME280;70265;47.576;19.270;2023-11-21T03:30:15;98220.75;;;2.35;100.00
71059;BME280;70265;47.576;19.270;2023-11-21T03:31:19;98218.06;;;2.36;100.00
71059;BME280;70265;47.576;19.270;2023-11-21T03:32:20;98219.72;;;2.37;100.00
71059;BME280;70265;47.576;19.270;2023-11-21T03:33:21;98223.81;;;2.40;100.00
71059;BME280;70265;47.576;19.270;2023-11-21T03:34:27;98218.53;;;2.41;100.00
71059;BME280;70265;47.576;19.270;2023-11-21T03:35:28;98217.34;;;2.45;100.00
71059;BME280;70265;47.576;19.270;2023-11-21T03:36:33;98209.56;;;2.45;100.00
71059;BME280;70265;47.576;19.270;2023-11-21T03:37:34;98219.00;;;2.46;100.00
71059;BME280;70265;47.576;19.270;2023-11-21T03:38:39;98210.41;;;2.46;100.00
71059;BME280;70265;47.576;19.270;2023-11-21T03:39:40;98210.88;;;2.51;100.00
71059;BME280;70265;47.576;19.270;2023-11-21T03:40:44;98219.00;;;2.46;100.00
71059;BME280;70265;47.576;19.270;2023-11-21T03:41:47;98219.72;;;2.37;100.00
71059;BME280;70265;47.576;19.270;2023-11-21T03:42:52;98209.59;;;2.34;100.00
71059;BME280;70265;47.576;19.270;2023-11-21T03:43:53;98210.41;;;2.35;100.00
71059;BME280;70265;47.576;19.270;2023-11-21T03:44:57;98202.53;;;2.36;100.00
71059;BME280;70265;47.576;19.270;2023-11-21T03:45:58;98208.63;;;2.35;100.00
71059;BME280;70265;47.576;19.270;2023-11-21T03:47:02;98207.59;;;2.27;100.00
71059;BME280;70265;47.576;19.270;2023-11-21T03:48:03;98206.16;;;2.23;100.00
71059;BME280;70265;47.576;19.270;2023-11-21T03:49:07;98204.06;;;2.28;100.00
71059;BME280;70265;47.576;19.270;2023-11-21T03:50:09;98205.69;;;2.29;100.00
71059;BME280;70265;47.576;19.270;2023-11-21T03:51:10;98204.66;;;2.31;100.00
71059;BME280;70265;47.576;19.270;2023-11-21T03:52:14;98205.34;;;2.33;100.00
71059;BME280;70265;47.576;19.270;2023-11-21T03:53:15;98206.03;;;2.35;100.00
71059;BME280;70265;47.576;19.270;2023-11-21T03:54:19;98207.69;;;2.36;100.00
71059;BME280;70265;47.576;19.270;2023-11-21T03:55:20;98197.34;;;2.36;100.00
71059;BME280;70265;47.576;19.270;2023-11-21T03:56:24;98190.28;;;2.38;100.00
71059;BME280;70265;47.576;19.270;2023-11-21T03:57:28;98188.41;;;2.40;100.00
71059;BME280;70265;47.576;19.270;2023-11-21T03:58:32;98193.25;;;2.45;100.00
71059;BME280;70265;47.576;19.270;2023-11-21T03:59:33;98186.28;;;2.45;100.00
71059;BME280;70265;47.576;19.270;2023-11-21T04:00:36;98188.19;;;2.43;100.00
71059;BME280;70265;47.576;19.270;2023-11-21T04:01:37;98188.53;;;2.50;100.00
71059;BME280;70265;47.576;19.270;2023-11-21T04:02:41;98191.94;;;2.50;100.00
71059;BME280;70265;47.576;19.270;2023-11-21T04:03:42;98191.94;;;2.50;100.00
71059;BME280;70265;47.576;19.270;2023-11-21T04:04:46;98188.63;;;2.48;100.00
71059;BME280;70265;47.576;19.270;2023-11-21T04:05:47;98191.22;;;2.48;100.00
71059;BME280;70265;47.576;19.270;2023-11-21T04:06:51;98191.22;;;2.48;100.00
71059;BME280;70265;47.576;19.270;2023-11-21T04:07:52;98198.28;;;2.46;100.00
71059;BME280;70265;47.576;19.270;2023-11-21T04:08:56;98198.19;;;2.48;100.00
71059;BME280;70265;47.576;19.270;2023-11-21T04:09:57;98204.16;;;2.48;100.00
71059;BME280;70265;47.576;19.270;2023-11-21T04:11:01;98199.81;;;2.49;100.00
71059;BME280;70265;47.576;19.270;2023-11-21T04:12:02;98203.22;;;2.49;100.00
71059;BME280;70265;47.576;19.270;2023-11-21T04:13:08;98204.16;;;2.48;100.00
71059;BME280;70265;47.576;19.270;2023-11-21T04:14:09;98204.88;;;2.50;100.00
71059;BME280;70265;47.576;19.270;2023-11-21T04:15:13;98205.72;;;2.51;100.00
71059;BME280;70265;47.576;19.270;2023-11-21T04:16:14;98211.72;;;2.51;100.00
71059;BME280;70265;47.576;19.270;2023-11-21T04:17:19;98211.00;;;2.49;100.00
71059;BME280;70265;47.576;19.270;2023-11-21T04:18:20;98216.66;;;2.54;100.00
71059;BME280;70265;47.576;19.270;2023-11-21T04:19:21;98227.00;;;2.54;100.00
71059;BME280;70265;47.576;19.270;2023-11-21T04:20:25;98230.28;;;2.56;100.00
71059;BME280;70265;47.576;19.270;2023-11-21T04:21:26;98225.84;;;2.59;100.00
71059;BME280;70265;47.576;19.270;2023-11-21T04:22:29;98222.28;;;2.60;100.00
71059;BME280;70265;47.576;19.270;2023-11-21T04:23:31;98225.69;;;2.60;100.00
71059;BME280;70265;47.576;19.270;2023-11-21T04:24:35;98229.34;;;2.58;100.00
71059;BME280;70265;47.576;19.270;2023-11-21T04:25:36;98224.19;;;2.58;100.00
71059;BME280;70265;47.576;19.270;2023-11-21T04:26:40;98234.78;;;2.54;100.00
71059;BME280;70265;47.576;19.270;2023-11-21T04:27:41;98232.06;;;2.45;100.00
71059;BME280;70265;47.576;19.270;2023-11-21T04:28:48;98242.03;;;2.38;100.00
71059;BME280;70265;47.576;19.270;2023-11-21T04:29:49;98245.34;;;2.40;100.00
71059;BME280;70265;47.576;19.270;2023-11-21T04:30:53;98246.28;;;2.39;100.00
71059;BME280;70265;47.576;19.270;2023-11-21T04:31:54;98252.53;;;2.37;100.00
71059;BME280;70265;47.576;19.270;2023-11-21T04:32:58;98254.53;;;2.33;100.00
71059;BME280;70265;47.576;19.270;2023-11-21T04:33:59;98257.09;;;2.33;100.00
71059;BME280;70265;47.576;19.270;2023-11-21T04:35:07;98262.16;;;2.35;100.00
71059;BME280;70265;47.576;19.270;2023-11-21T04:36:09;98262.16;;;2.35;100.00
71059;BME280;70265;47.576;19.270;2023-11-21T04:37:13;98262.38;;;2.32;100.00
71059;BME280;70265;47.576;19.270;2023-11-21T04:38:17;98256.41;;;2.31;100.00
71059;BME280;70265;47.576;19.270;2023-11-21T04:39:19;98258.28;;;2.29;100.00
71059;BME280;70265;47.576;19.270;2023-11-21T04:40:23;98258.88;;;2.33;100.00
71059;BME280;70265;47.576;19.270;2023-11-21T04:41:24;98258.88;;;2.33;100.00
71059;BME280;70265;47.576;19.270;2023-11-21T04:42:28;98251.44;;;2.28;100.00
71059;BME280;70265;47.576;19.270;2023-11-21T04:43:29;98250.84;;;2.25;100.00
71059;BME280;70265;47.576;19.270;2023-11-21T04:44:35;98252.03;;;2.21;100.00
71059;BME280;70265;47.576;19.270;2023-11-21T04:45:37;98246.38;;;2.16;100.00
71059;BME280;70265;47.576;19.270;2023-11-21T04:46:41;98248.13;;;2.15;100.00
71059;BME280;70265;47.576;19.270;2023-11-21T04:47:42;98256.03;;;2.14;100.00
71059;BME280;70265;47.576;19.270;2023-11-21T04:48:44;98244.13;;;2.11;100.00
71059;BME280;70265;47.576;19.270;2023-11-21T04:49:47;98242.03;;;2.16;100.00
71059;BME280;70265;47.576;19.270;2023-11-21T04:50:49;98241.78;;;2.19;100.00
71059;BME280;70265;47.576;19.270;2023-11-21T04:51:50;98245.06;;;2.21;100.00
71059;BME280;70265;47.576;19.270;2023-11-21T04:52:53;98235.78;;;2.19;100.00
71059;BME280;70265;47.576;19.270;2023-11-21T04:53:54;98242.50;;;2.21;100.00
71059;BME280;70265;47.576;19.270;2023-11-21T04:54:58;98242.97;;;2.26;100.00
71059;BME280;70265;47.576;19.270;2023-11-21T04:56:01;98246.06;;;2.31;100.00
71059;BME280;70265;47.576;19.270;2023-11-21T04:57:06;98247.00;;;2.30;100.00
71059;BME280;70265;47.576;19.270;2023-11-21T04:58:08;98246.25;;;2.28;100.00
71059;BME280;70265;47.576;19.270;2023-11-21T04:59:12;98245.47;;;2.28;100.00
71059;BME280;70265;47.576;19.270;2023-11-21T05:00:17;98253.00;;;2.31;100.00
71059;BME280;70265;47.576;19.270;2023-11-21T05:01:21;98256.41;;;2.31;100.00
71059;BME280;70265;47.576;19.270;2023-11-21T05:02:23;98255.59;;;2.31;100.00
71059;BME280;70265;47.576;19.270;2023-11-21T05:03:27;98258.16;;;2.31;100.00
71059;BME280;70265;47.576;19.270;2023-11-21T05:04:30;98263.34;;;2.31;100.00
71059;BME280;70265;47.576;19.270;2023-11-21T05:05:34;98262.63;;;2.29;100.00
71059;BME280;70265;47.576;19.270;2023-11-21T05:06:35;98262.38;;;2.32;100.00
71059;BME280;70265;47.576;19.270;2023-11-21T05:07:39;98265.09;;;2.30;100.00
71059;BME280;70265;47.576;19.270;2023-11-21T05:08:40;98266.03;;;2.29;100.00
71059;BME280;70265;47.576;19.270;2023-11-21T05:09:44;98272.72;;;2.32;100.00
71059;BME280;70265;47.576;19.270;2023-11-21T05:10:46;98276.88;;;2.34;100.00
71059;BME280;70265;47.576;19.270;2023-11-21T05:11:50;98275.91;;;2.35;100.00
71059;BME280;70265;47.576;19.270;2023-11-21T05:12:51;98280.06;;;2.38;100.00
71059;BME280;70265;47.576;19.270;2023-11-21T05:13:55;98278.25;;;2.38;100.00
71059;BME280;70265;47.576;19.270;2023-11-21T05:14:57;98278.06;;;2.41;100.00
71059;BME280;70265;47.576;19.270;2023-11-21T05:16:04;98282.28;;;2.31;100.00
71059;BME280;70265;47.576;19.270;2023-11-21T05:17:06;98285.81;;;2.30;100.00
71059;BME280;70265;47.576;19.270;2023-11-21T05:18:10;98290.59;;;2.35;100.00
71059;BME280;70265;47.576;19.270;2023-11-21T05:19:11;98283.44;;;2.38;100.00
71059;BME280;70265;47.576;19.270;2023-11-21T05:20:15;98292.50;;;2.33;100.00
71059;BME280;70265;47.576;19.270;2023-11-21T05:21:21;98290.38;;;2.27;100.00
71059;BME280;70265;47.576;19.270;2023-11-21T05:22:25;98291.22;;;2.27;100.00
71059;BME280;70265;47.576;19.270;2023-11-21T05:23:26;98286.03;;;2.27;100.00
71059;BME280;70265;47.576;19.270;2023-11-21T05:24:30;98291.44;;;2.24;100.00
71059;BME280;70265;47.576;19.270;2023-11-21T05:25:31;98290.47;;;2.25;100.00
71059;BME280;70265;47.576;19.270;2023-11-21T05:26:32;98293.91;;;2.26;100.00
71059;BME280;70265;47.576;19.270;2023-11-21T05:27:36;98294.81;;;2.25;100.00
71059;BME280;70265;47.576;19.270;2023-11-21T05:28:37;98291.22;;;2.27;100.00